createdAt,value
2023-06-10T00:00:02.434Z,100567.63
2023-06-10T00:02:40.811Z,100569.19
2023-06-10T00:05:10.095Z,100561.81
2023-06-10T00:07:39.165Z,100565.75
2023-06-10T00:10:07.697Z,100570.44
2023-06-10T00:12:38.320Z,100573.13
2023-06-10T00:15:07.185Z,100567.88
2023-06-10T00:17:35.051Z,100571.03
2023-06-10T00:20:06.127Z,100565.66
2023-06-10T00:22:33.594Z,100558.28
2023-06-10T00:25:00.994Z,100564.94
2023-06-10T00:27:32.517Z,100553.25
2023-06-10T00:30:02.187Z,100556.38
2023-06-10T00:32:30.125Z,100558.81
2023-06-10T00:34:57.441Z,100548.81
2023-06-10T00:37:25.306Z,100556.59
2023-06-10T00:39:53.141Z,100547.31
2023-06-10T00:42:25.132Z,100549.28
2023-06-10T00:44:52.853Z,100546.06
2023-06-10T00:47:23.736Z,100544.13
2023-06-10T00:49:52.109Z,100541.88
2023-06-10T00:52:23.860Z,100541.03
2023-06-10T00:54:51.397Z,100545.03
2023-06-10T00:57:18.875Z,100542.66
2023-06-10T00:59:49.629Z,100542.66
2023-06-10T01:02:17.851Z,100549.88
2023-06-10T01:04:45.332Z,100540.28
2023-06-10T01:07:32.671Z,100538.44
2023-06-10T01:10:42.110Z,100542.25
2023-06-10T01:13:15.752Z,100545.66
2023-06-10T01:15:43.966Z,100538.94
2023-06-10T01:18:16.557Z,100537.09
2023-06-10T01:20:45.241Z,100540.63
2023-06-10T01:23:12.963Z,100538.78
2023-06-10T01:25:45.502Z,100534.25
2023-06-10T01:28:15.718Z,100531.84
2023-06-10T01:31:09.313Z,100527.94
2023-06-10T01:33:41.615Z,100527.22
2023-06-10T01:36:09.749Z,100529.50
2023-06-10T01:38:43.598Z,100528.78
2023-06-10T01:41:13.559Z,100535.72
2023-06-10T01:43:43.774Z,100527.41
2023-06-10T01:46:12.012Z,100526.41
2023-06-10T01:48:39.730Z,100532.06
2023-06-10T01:51:07.439Z,100528.22
2023-06-10T01:53:37.195Z,100535.31
2023-06-10T01:56:06.397Z,100542.09
2023-06-10T01:58:33.699Z,100534.47
2023-06-10T02:01:01.115Z,100542.78
2023-06-10T02:03:28.670Z,100538.84
2023-06-10T02:05:57.002Z,100540.63
2023-06-10T02:08:24.344Z,100544.50
2023-06-10T02:10:51.709Z,100543.06
2023-06-10T02:13:19.241Z,100549.13
2023-06-10T02:15:47.159Z,100545.59
2023-06-10T02:18:14.637Z,100546.28
2023-06-10T02:20:42.130Z,100544.25
2023-06-10T02:23:09.375Z,100550.78
2023-06-10T02:25:37.498Z,100544.41
2023-06-10T02:28:04.984Z,100547.94
2023-06-10T02:30:32.692Z,100548.88
2023-06-10T02:33:00.418Z,100547.16
2023-06-10T02:35:28.630Z,100541.50
2023-06-10T02:37:56.689Z,100538.81
2023-06-10T02:40:24.284Z,100542.09
2023-06-10T02:42:51.531Z,100550.25
2023-06-10T02:45:18.845Z,100542.22
2023-06-10T02:47:46.805Z,100537.03
2023-06-10T02:50:14.700Z,100547.59
2023-06-10T02:52:58.224Z,100544.34
2023-06-10T02:55:27.734Z,100547.72
2023-06-10T02:58:01.717Z,100544.75
2023-06-10T03:00:30.736Z,100536.84
2023-06-10T03:02:58.884Z,100538.09
2023-06-10T03:05:32.316Z,100540.63
2023-06-10T03:08:02.950Z,100539.94
2023-06-10T03:10:34.112Z,100528.94
2023-06-10T03:13:02.515Z,100538.13
2023-06-10T03:15:34.059Z,100532.06
2023-06-10T03:18:06.281Z,100526.56
2023-06-10T03:20:38.781Z,100525.84
2023-06-10T03:23:08.324Z,100525.25
2023-06-10T03:25:36.360Z,100527.22
2023-06-10T03:28:04.676Z,100527.06
2023-06-10T03:30:32.885Z,100527.22
2023-06-10T03:33:00.843Z,100524.09
2023-06-10T03:35:31.043Z,100524.06
2023-06-10T03:37:58.811Z,100526.56
2023-06-10T03:40:26.079Z,100524.31
2023-06-10T03:42:53.424Z,100520.50
2023-06-10T03:45:21.510Z,100516.00
2023-06-10T03:47:49.626Z,100516.00
2023-06-10T03:50:20.465Z,100513.75
2023-06-10T03:52:48.448Z,100518.09
2023-06-10T03:55:17.888Z,100520.19
2023-06-10T03:57:47.899Z,100521.44
2023-06-10T04:00:16.563Z,100521.44
2023-06-10T04:02:49.081Z,100523.13
2023-06-10T04:05:31.483Z,100519.56
2023-06-10T04:07:59.268Z,100525.97
2023-06-10T04:10:26.886Z,100524.81
2023-06-10T04:12:55.369Z,100524.56
2023-06-10T04:15:25.010Z,100522.28
2023-06-10T04:17:52.458Z,100518.31
2023-06-10T04:20:23.305Z,100513.50
2023-06-10T04:22:51.205Z,100519.69
2023-06-10T04:25:18.647Z,100520.38
2023-06-10T04:27:45.914Z,100521.75
2023-06-10T04:30:14.149Z,100520.91
2023-06-10T04:32:42.231Z,100523.81
2023-06-10T04:35:16.323Z,100521.00
2023-06-10T04:37:44.076Z,100528.53
2023-06-10T04:40:12.278Z,100526.22
2023-06-10T04:42:39.935Z,100525.38
2023-06-10T04:45:09.682Z,100527.91
2023-06-10T04:47:38.322Z,100528.47
2023-06-10T04:50:07.127Z,100527.69
2023-06-10T04:52:35.222Z,100523.88
2023-06-10T04:55:03.190Z,100527.09
2023-06-10T04:57:30.726Z,100521.63
2023-06-10T05:00:01.348Z,100515.06
2023-06-10T05:02:28.871Z,100513.31
2023-06-10T05:04:57.724Z,100512.97
2023-06-10T05:07:25.239Z,100515.19
2023-06-10T05:09:52.652Z,100510.03
2023-06-10T05:12:19.948Z,100508.00
2023-06-10T05:14:47.396Z,100505.03
2023-06-10T05:17:14.951Z,100503.38
2023-06-10T05:19:44.328Z,100503.22
2023-06-10T05:22:12.243Z,100509.84
2023-06-10T05:24:41.288Z,100512.03
2023-06-10T05:27:08.584Z,100513.25
2023-06-10T05:29:35.999Z,100514.16
2023-06-10T05:32:04.632Z,100508.13
2023-06-10T05:34:32.239Z,100508.75
2023-06-10T05:36:59.652Z,100506.94
2023-06-10T05:39:27.321Z,100517.69
2023-06-10T05:41:54.686Z,100508.44
2023-06-10T05:44:22.204Z,100506.13
2023-06-10T05:46:49.462Z,100503.78
2023-06-10T05:49:16.704Z,100495.22
2023-06-10T05:51:44.137Z,100489.69
2023-06-10T05:54:12.246Z,100494.41
2023-06-10T05:56:39.725Z,100506.19
2023-06-10T05:59:07.473Z,100504.16
2023-06-10T06:01:35.360Z,100497.56
2023-06-10T06:04:02.805Z,100488.81
2023-06-10T06:06:30.229Z,100494.34
2023-06-10T06:08:57.684Z,100491.13
2023-06-10T06:11:26.930Z,100494.81
2023-06-10T06:13:55.359Z,100483.78
2023-06-10T06:16:22.690Z,100489.09
2023-06-10T06:18:50.068Z,100478.44
2023-06-10T06:21:17.351Z,100482.31
2023-06-10T06:23:45.840Z,100474.31
2023-06-10T06:26:13.168Z,100466.03
2023-06-10T06:28:41.100Z,100467.66
2023-06-10T06:31:08.556Z,100473.47
2023-06-10T06:33:36.117Z,100468.50
2023-06-10T06:36:04.448Z,100472.28
2023-06-10T06:38:31.926Z,100466.94
2023-06-10T06:41:04.310Z,100461.97
2023-06-10T06:43:31.763Z,100467.25
2023-06-10T06:46:17.582Z,100456.00
2023-06-10T06:48:45.603Z,100458.38
2023-06-10T06:51:13.404Z,100459.16
2023-06-10T06:53:45.524Z,100462.69
2023-06-10T06:56:14.119Z,100456.50
2023-06-10T06:58:42.640Z,100452.22
2023-06-10T07:01:09.957Z,100455.00
2023-06-10T07:03:40.242Z,100452.28
2023-06-10T07:06:11.080Z,100450.38
2023-06-10T07:08:40.118Z,100456.75
2023-06-10T07:11:07.416Z,100450.09
2023-06-10T07:13:35.226Z,100445.88
2023-06-10T07:16:02.930Z,100450.72
2023-06-10T07:18:30.791Z,100446.25
2023-06-10T07:20:58.251Z,100445.84
2023-06-10T07:23:25.912Z,100440.78
2023-06-10T07:25:53.259Z,100447.34
2023-06-10T07:28:20.547Z,100441.53
2023-06-10T07:30:48.256Z,100442.91
2023-06-10T07:33:15.813Z,100443.19
2023-06-10T07:35:44.355Z,100435.97
2023-06-10T07:38:12.467Z,100423.97
2023-06-10T07:40:40.036Z,100422.34
2023-06-10T07:43:07.410Z,100432.25
2023-06-10T07:45:35.174Z,100432.03
2023-06-10T07:48:02.469Z,100428.69
2023-06-10T07:50:29.880Z,100427.03
2023-06-10T07:52:57.201Z,100421.19
2023-06-10T07:55:27.064Z,100425.44
2023-06-10T07:57:55.162Z,100429.66
2023-06-10T08:00:23.171Z,100432.19
2023-06-10T08:02:51.848Z,100425.97
2023-06-10T08:05:19.592Z,100421.66
2023-06-10T08:07:47.097Z,100422.31
2023-06-10T08:10:15.014Z,100423.59
2023-06-10T08:12:42.396Z,100424.53
2023-06-10T08:15:10.592Z,100416.59
2023-06-10T08:17:39.634Z,100417.44
2023-06-10T08:20:08.118Z,100419.56
2023-06-10T08:22:36.001Z,100415.03
2023-06-10T08:25:03.734Z,100414.63
2023-06-10T08:27:31.368Z,100405.22
2023-06-10T08:30:00.609Z,100409.63
2023-06-10T08:32:28.202Z,100407.09
2023-06-10T08:34:56.942Z,100407.09
2023-06-10T08:37:25.216Z,100410.47
2023-06-10T08:39:52.559Z,100407.56
2023-06-10T08:42:29.341Z,100402.91
2023-06-10T08:44:57.536Z,100403.34
2023-06-10T08:47:26.484Z,100397.91
2023-06-10T08:49:57.588Z,100399.97
2023-06-10T08:52:28.943Z,100398.75
2023-06-10T08:55:05.776Z,100400.00
2023-06-10T08:57:33.467Z,100403.34
2023-06-10T09:00:01.231Z,100398.75
2023-06-10T09:02:28.794Z,100394.16
2023-06-10T09:04:58.942Z,100395.16
2023-06-10T09:07:27.122Z,100384.03
2023-06-10T09:09:55.991Z,100389.44
2023-06-10T09:12:23.358Z,100383.19
2023-06-10T09:14:51.009Z,100392.00
2023-06-10T09:17:19.024Z,100384.75
2023-06-10T09:19:48.511Z,100387.50
2023-06-10T09:22:16.569Z,100376.19
2023-06-10T09:24:43.895Z,100383.91
2023-06-10T09:27:11.444Z,100377.22
2023-06-10T09:29:55.812Z,100373.97
2023-06-10T09:32:23.290Z,100374.94
2023-06-10T09:34:54.250Z,100374.09
2023-06-10T09:37:23.168Z,100375.00
2023-06-10T09:40:11.617Z,100375.66
2023-06-10T09:42:40.533Z,100365.59
2023-06-10T09:45:08.698Z,100370.59
2023-06-10T09:47:36.506Z,100362.16
2023-06-10T09:50:04.841Z,100367.19
2023-06-10T09:52:32.382Z,100368.81
2023-06-10T09:55:03.789Z,100358.84
2023-06-10T09:57:35.226Z,100354.94
2023-06-10T10:00:23.248Z,100356.69
2023-06-10T10:02:52.959Z,100353.91
2023-06-10T10:05:23.156Z,100365.25
2023-06-10T10:07:51.411Z,100356.38
2023-06-10T10:10:21.284Z,100353.59
2023-06-10T10:12:52.168Z,100362.00
2023-06-10T10:15:21.088Z,100358.44
2023-06-10T10:17:59.603Z,100349.47
2023-06-10T10:20:31.106Z,100351.28
2023-06-10T10:23:00.495Z,100353.03
2023-06-10T10:25:29.669Z,100341.16
2023-06-10T10:28:09.652Z,100348.31
2023-06-10T10:30:58.610Z,100332.28
2023-06-10T10:33:36.720Z,100340.78
2023-06-10T10:36:05.396Z,100336.84
2023-06-10T10:38:33.926Z,100331.84
2023-06-10T10:41:02.276Z,100331.69
2023-06-10T10:43:34.008Z,100323.75
2023-06-10T10:46:02.761Z,100331.47
2023-06-10T10:48:39.267Z,100320.16
2023-06-10T10:51:06.683Z,100323.69
2023-06-10T10:53:34.639Z,100326.34
2023-06-10T10:56:16.432Z,100331.56
2023-06-10T10:59:04.728Z,100329.84
2023-06-10T11:01:43.628Z,100325.09
2023-06-10T11:04:11.490Z,100321.56
2023-06-10T11:06:39.585Z,100318.69
2023-06-10T11:09:29.871Z,100318.31
2023-06-10T11:12:01.150Z,100320.63
2023-06-10T11:14:30.396Z,100319.72
2023-06-10T11:16:59.412Z,100320.44
2023-06-10T11:19:33.881Z,100323.94
2023-06-10T11:22:03.224Z,100317.84
2023-06-10T11:24:31.243Z,100314.38
2023-06-10T11:27:18.600Z,100309.97
2023-06-10T11:30:04.680Z,100313.66
2023-06-10T11:32:35.944Z,100308.22
2023-06-10T11:35:09.343Z,100312.72
2023-06-10T11:37:37.592Z,100309.59
2023-06-10T11:40:05.607Z,100308.03
2023-06-10T11:42:46.160Z,100304.28
2023-06-10T11:45:19.959Z,100305.06
2023-06-10T11:48:00.662Z,100294.75
2023-06-10T11:50:34.937Z,100291.97
2023-06-10T11:53:02.334Z,100297.13
2023-06-10T11:56:02.141Z,100284.75
2023-06-10T11:58:29.998Z,100293.03
2023-06-10T12:01:02.602Z,100287.34
2023-06-10T12:03:41.195Z,100293.00
2023-06-10T12:06:08.889Z,100269.34
2023-06-10T12:08:43.990Z,100287.84
2023-06-10T12:11:11.999Z,100283.47
2023-06-10T12:13:49.700Z,100282.66
2023-06-10T12:16:17.918Z,100279.34
2023-06-10T12:18:47.084Z,100282.78
2023-06-10T12:21:22.223Z,100275.63
2023-06-10T12:24:02.622Z,100286.72
2023-06-10T12:26:37.363Z,100281.50
2023-06-10T12:29:22.157Z,100273.06
2023-06-10T12:32:04.497Z,100283.88
2023-06-10T12:34:41.621Z,100277.41
2023-06-10T12:37:14.891Z,100269.84
2023-06-10T12:39:43.912Z,100266.09
2023-06-10T12:42:11.627Z,100280.94
2023-06-10T12:44:42.511Z,100269.38
2023-06-10T12:47:11.226Z,100271.00
2023-06-10T12:49:38.519Z,100274.94
2023-06-10T12:52:06.769Z,100273.34
2023-06-10T12:54:35.683Z,100278.00
2023-06-10T12:57:03.813Z,100272.75
2023-06-10T12:59:33.000Z,100277.41
2023-06-10T13:02:00.361Z,100270.84
2023-06-10T13:04:28.164Z,100272.13
2023-06-10T13:06:55.964Z,100272.13
2023-06-10T13:09:23.785Z,100266.50
2023-06-10T13:11:51.593Z,100265.03
2023-06-10T13:14:18.957Z,100271.50
2023-06-10T13:16:46.532Z,100265.94
2023-06-10T13:19:14.089Z,100259.88
2023-06-10T13:21:41.730Z,100261.63
2023-06-10T13:24:09.037Z,100259.50
2023-06-10T13:26:37.616Z,100260.97
2023-06-10T13:29:05.381Z,100259.78
2023-06-10T13:31:33.704Z,100257.28
2023-06-10T13:34:01.102Z,100254.53
2023-06-10T13:36:28.490Z,100264.59
2023-06-10T13:38:56.997Z,100261.88
2023-06-10T13:41:24.589Z,100262.75
2023-06-10T13:43:52.022Z,100261.91
2023-06-10T13:46:19.706Z,100261.06
2023-06-10T13:48:47.117Z,100261.69
2023-06-10T13:51:14.638Z,100255.63
2023-06-10T13:53:42.029Z,100261.91
2023-06-10T13:56:10.476Z,100253.13
2023-06-10T13:58:40.177Z,100254.16
2023-06-10T14:01:07.454Z,100246.44
2023-06-10T14:03:37.751Z,100255.44
2023-06-10T14:06:05.544Z,100255.41
2023-06-10T14:08:34.365Z,100257.28
2023-06-10T14:11:01.924Z,100247.69
2023-06-10T14:13:29.602Z,100250.59
2023-06-10T14:15:57.423Z,100245.56
2023-06-10T14:18:24.831Z,100243.06
2023-06-10T14:20:52.250Z,100248.03
2023-06-10T14:23:20.148Z,100244.72
2023-06-10T14:25:49.698Z,100244.91
2023-06-10T14:28:17.399Z,100241.34
2023-06-10T14:30:44.919Z,100237.56
2023-06-10T14:33:12.511Z,100233.16
2023-06-10T14:35:40.129Z,100244.59
2023-06-10T14:38:08.399Z,100242.50
2023-06-10T14:40:36.272Z,100242.94
2023-06-10T14:43:11.041Z,100241.66
2023-06-10T14:45:39.525Z,100240.41
2023-06-10T14:48:08.455Z,100236.66
2023-06-10T14:50:41.638Z,100237.50
2023-06-10T14:53:08.997Z,100231.81
2023-06-10T14:55:36.884Z,100233.66
2023-06-10T14:58:04.165Z,100241.38
2023-06-10T15:00:31.752Z,100235.72
2023-06-10T15:02:59.177Z,100233.59
2023-06-10T15:05:26.450Z,100237.13
2023-06-10T15:07:53.791Z,100237.78
2023-06-10T15:10:24.003Z,100232.31
2023-06-10T15:12:57.031Z,100233.50
2023-06-10T15:15:26.224Z,100239.63
2023-06-10T15:17:54.859Z,100231.84
2023-06-10T15:20:23.664Z,100232.63
2023-06-10T15:22:51.077Z,100233.47
2023-06-10T15:25:29.863Z,100235.56
2023-06-10T15:27:59.177Z,100229.28
2023-06-10T15:30:26.939Z,100227.63
2023-06-10T15:32:54.720Z,100231.56
2023-06-10T15:35:23.052Z,100233.22
2023-06-10T15:37:50.690Z,100231.34
2023-06-10T15:40:18.046Z,100242.63
2023-06-10T15:42:45.554Z,100233.44
2023-06-10T15:45:13.214Z,100233.44
2023-06-10T15:47:42.793Z,100239.28
2023-06-10T15:50:11.397Z,100242.19
2023-06-10T15:52:39.668Z,100238.41
2023-06-10T15:55:07.237Z,100240.88
2023-06-10T15:57:35.114Z,100249.00
2023-06-10T16:00:02.578Z,100250.47
2023-06-10T16:02:34.282Z,100251.25
2023-06-10T16:05:03.846Z,100260.00
2023-06-10T16:07:31.516Z,100254.16
2023-06-10T16:09:59.104Z,100247.25
2023-06-10T16:12:26.814Z,100252.81
2023-06-10T16:14:54.257Z,100257.97
2023-06-10T16:17:22.258Z,100252.69
2023-06-10T16:19:49.997Z,100252.00
2023-06-10T16:22:17.324Z,100254.25
2023-06-10T16:24:44.561Z,100254.78
2023-06-10T16:27:12.030Z,100262.66
2023-06-10T16:29:39.757Z,100255.44
2023-06-10T16:32:07.601Z,100263.75
2023-06-10T16:34:34.920Z,100259.34
2023-06-10T16:37:03.095Z,100256.84
2023-06-10T16:39:30.829Z,100265.38
2023-06-10T16:41:58.120Z,100258.66
2023-06-10T16:44:25.652Z,100259.88
2023-06-10T16:46:52.988Z,100269.63
2023-06-10T16:49:20.392Z,100256.72
2023-06-10T16:51:48.026Z,100256.28
2023-06-10T16:54:15.618Z,100253.56
2023-06-10T16:56:42.879Z,100248.59
2023-06-10T16:59:10.790Z,100253.38
2023-06-10T17:01:38.436Z,100256.28
2023-06-10T17:04:05.870Z,100253.75
2023-06-10T17:06:33.387Z,100253.25
2023-06-10T17:09:00.741Z,100256.63
2023-06-10T17:11:28.329Z,100259.44
2023-06-10T17:13:56.615Z,100254.22
2023-06-10T17:16:24.073Z,100257.28
2023-06-10T17:18:51.632Z,100262.06
2023-06-10T17:21:18.929Z,100253.94
2023-06-10T17:23:46.334Z,100256.66
2023-06-10T17:26:13.748Z,100246.22
2023-06-10T17:28:41.556Z,100247.63
2023-06-10T17:31:08.888Z,100247.75
2023-06-10T17:33:37.280Z,100243.09
2023-06-10T17:36:05.315Z,100247.75
2023-06-10T17:38:32.632Z,100247.66
2023-06-10T17:41:02.444Z,100250.75
2023-06-10T17:43:30.068Z,100259.03
2023-06-10T17:45:59.097Z,100246.28
2023-06-10T17:48:26.476Z,100248.97
2023-06-10T17:50:53.952Z,100256.09
2023-06-10T17:53:22.447Z,100254.38
2023-06-10T17:55:49.772Z,100255.41
2023-06-10T17:58:17.563Z,100260.19
2023-06-10T18:00:45.085Z,100261.41
2023-06-10T18:03:12.517Z,100258.44
2023-06-10T18:05:39.952Z,100256.91
2023-06-10T18:08:07.450Z,100254.59
2023-06-10T18:10:38.012Z,100252.28
2023-06-10T18:13:05.582Z,100264.28
2023-06-10T18:15:35.248Z,100260.72
2023-06-10T18:18:05.457Z,100269.81
2023-06-10T18:20:32.847Z,100264.09
2023-06-10T18:23:00.113Z,100266.13
2023-06-10T18:25:27.511Z,100269.59
2023-06-10T18:27:57.229Z,100268.94
2023-06-10T18:30:25.741Z,100265.22
2023-06-10T18:32:53.450Z,100265.22
2023-06-10T18:35:22.520Z,100263.91
2023-06-10T18:37:50.222Z,100268.47
2023-06-10T18:40:19.128Z,100258.50
2023-06-10T18:42:46.461Z,100254.28
2023-06-10T18:45:14.215Z,100257.56
2023-06-10T18:47:56.662Z,100254.00
2023-06-10T18:50:25.031Z,100245.44
2023-06-10T18:52:52.488Z,100250.03
2023-06-10T18:55:20.347Z,100247.50
2023-06-10T18:57:47.687Z,100241.44
2023-06-10T19:00:15.692Z,100240.78
2023-06-10T19:05:25.778Z,100239.84
2023-06-10T19:07:53.503Z,100237.69
2023-06-10T19:10:22.213Z,100237.88
2023-06-10T19:12:49.650Z,100239.94
2023-06-10T19:15:17.060Z,100239.94
2023-06-10T19:17:45.306Z,100243.38
2023-06-10T19:20:13.896Z,100244.75
2023-06-10T19:22:41.667Z,100239.53
2023-06-10T19:25:10.049Z,100237.69
2023-06-10T19:27:37.685Z,100240.56
2023-06-10T19:30:05.593Z,100239.09
2023-06-10T19:32:33.657Z,100237.75
2023-06-10T19:35:02.448Z,100233.38
2023-06-10T19:37:30.353Z,100238.97
2023-06-10T19:39:57.790Z,100231.34
2023-06-10T19:42:25.169Z,100233.56
2023-06-10T19:44:52.436Z,100231.28
2023-06-10T19:47:19.913Z,100232.00
2023-06-10T19:49:48.321Z,100229.84
2023-06-10T19:52:18.263Z,100228.16
2023-06-10T19:54:45.589Z,100226.31
2023-06-10T19:57:14.348Z,100232.09
2023-06-10T19:59:41.867Z,100229.06
2023-06-10T20:02:09.390Z,100227.94
2023-06-10T20:04:36.777Z,100226.63
2023-06-10T20:07:04.187Z,100220.75
2023-06-10T20:09:31.886Z,100222.41
2023-06-10T20:12:01.268Z,100219.56
2023-06-10T20:14:30.766Z,100230.06
2023-06-10T20:17:00.290Z,100219.59
2023-06-10T20:19:27.558Z,100221.66
2023-06-10T20:21:54.833Z,100228.59
2023-06-10T20:24:22.760Z,100228.47
2023-06-10T20:26:50.419Z,100220.75
2023-06-10T20:29:18.229Z,100222.81
2023-06-10T20:31:46.839Z,100223.50
2023-06-10T20:34:14.201Z,100215.91
2023-06-10T20:36:41.767Z,100220.81
2023-06-10T20:39:09.572Z,100226.59
2023-06-10T20:41:37.360Z,100220.53
2023-06-10T20:44:05.483Z,100215.31
2023-06-10T20:46:33.463Z,100214.00
2023-06-10T20:49:00.981Z,100214.16
2023-06-10T20:51:28.660Z,100205.72
2023-06-10T20:53:56.410Z,100213.50
2023-06-10T20:56:23.868Z,100213.50
2023-06-10T20:58:51.593Z,100210.78
2023-06-10T21:01:19.019Z,100210.50
2023-06-10T21:03:46.613Z,100204.47
2023-06-10T21:06:16.126Z,100207.03
2023-06-10T21:08:43.694Z,100199.50
2023-06-10T21:11:11.107Z,100200.84
2023-06-10T21:13:39.281Z,100195.97
2023-06-10T21:16:06.883Z,100193.81
2023-06-10T21:18:35.645Z,100193.50
2023-06-10T21:21:03.125Z,100196.38
2023-06-10T21:23:31.193Z,100193.19
2023-06-10T21:26:00.895Z,100187.78
2023-06-10T21:28:28.227Z,100191.16
2023-06-10T21:30:55.705Z,100191.50
2023-06-10T21:33:24.140Z,100174.69
2023-06-10T21:35:51.627Z,100179.94
2023-06-10T21:38:19.796Z,100177.41
2023-06-10T21:40:47.298Z,100183.16
2023-06-10T21:43:14.599Z,100181.50
2023-06-10T21:45:41.829Z,100183.31
2023-06-10T21:48:09.373Z,100180.97
2023-06-10T21:50:36.919Z,100189.25
2023-06-10T21:53:04.238Z,100187.91
2023-06-10T21:55:32.071Z,100180.00
2023-06-10T21:57:59.578Z,100180.34
2023-06-10T22:00:27.055Z,100171.25
2023-06-10T22:02:54.593Z,100175.81
2023-06-10T22:05:21.949Z,100178.34
2023-06-10T22:07:50.928Z,100169.75
2023-06-10T22:10:18.335Z,100165.56
2023-06-10T22:12:46.094Z,100163.06
2023-06-10T22:15:14.526Z,100156.78
2023-06-10T22:17:42.228Z,100154.09
2023-06-10T22:20:10.058Z,100156.97
2023-06-10T22:22:37.834Z,100152.97
2023-06-10T22:25:05.690Z,100148.88
2023-06-10T22:27:33.218Z,100155.28
2023-06-10T22:30:01.985Z,100153.63
2023-06-10T22:32:32.532Z,100151.94
2023-06-10T22:35:00.128Z,100151.75
2023-06-10T22:37:27.380Z,100150.94
2023-06-10T22:39:54.777Z,100148.56
2023-06-10T22:42:22.139Z,100147.03
2023-06-10T22:44:49.565Z,100153.28
2023-06-10T22:47:16.937Z,100145.38
2023-06-10T22:49:44.615Z,100148.75
2023-06-10T22:52:11.972Z,100150.94
2023-06-10T22:54:41.444Z,100151.25
2023-06-10T22:57:08.796Z,100147.03
2023-06-10T22:59:36.201Z,100149.91
2023-06-10T23:02:03.897Z,100154.31
2023-06-10T23:04:31.454Z,100154.13
2023-06-10T23:06:58.837Z,100147.91
2023-06-10T23:09:26.156Z,100144.56
2023-06-10T23:11:53.423Z,100141.88
2023-06-10T23:14:20.982Z,100141.53
2023-06-10T23:16:48.431Z,100146.44
2023-06-10T23:19:19.430Z,100141.88
2023-06-10T23:21:54.608Z,100138.47
2023-06-10T23:24:28.454Z,100141.31
2023-06-10T23:27:00.873Z,100134.63
2023-06-10T23:29:29.118Z,100135.59
2023-06-10T23:31:56.789Z,100137.47
2023-06-10T23:34:24.597Z,100126.56
2023-06-10T23:36:53.829Z,100129.09
2023-06-10T23:39:22.120Z,100122.34
2023-06-10T23:41:49.492Z,100121.84
2023-06-10T23:44:16.898Z,100114.78
2023-06-10T23:46:44.289Z,100113.94
2023-06-10T23:49:11.935Z,100124.69
2023-06-10T23:51:39.860Z,100119.31
2023-06-10T23:54:07.249Z,100124.53
2023-06-10T23:56:34.745Z,100125.38
2023-06-10T23:59:02.034Z,100135.66
